createdAt,value
2024-02-07T00:02:00.541Z,10.4
2024-02-07T00:12:00.521Z,10.4
2024-02-07T00:22:00.743Z,10.3
2024-02-07T00:32:00.911Z,10.3
2024-02-07T00:42:01.203Z,10.2
2024-02-07T00:52:01.314Z,10.3
2024-02-07T01:02:01.565Z,10.5
2024-02-07T01:12:01.717Z,10.5
2024-02-07T01:22:01.910Z,8.6
2024-02-07T01:32:02.127Z,6.3
2024-02-07T01:42:02.334Z,5.6
2024-02-07T01:52:02.542Z,5.2
2024-02-07T02:02:02.806Z,5.1
2024-02-07T02:12:02.942Z,5
2024-02-07T02:22:03.184Z,5
2024-02-07T02:32:03.345Z,4.7
2024-02-07T02:52:03.780Z,4.4
2024-02-07T03:02:04.054Z,4.4
2024-02-07T03:12:04.182Z,4.4
2024-02-07T03:22:04.428Z,4.4
2024-02-07T03:32:04.580Z,4.4
2024-02-07T03:42:04.803Z,4.4
2024-02-07T03:52:05.015Z,4.4
2024-02-07T04:02:05.320Z,4.4
2024-02-07T04:12:05.432Z,4.4
2024-02-07T04:22:05.689Z,4.4
2024-02-07T04:32:05.830Z,4
2024-02-07T04:42:06.051Z,3.8
2024-02-07T04:52:06.246Z,3.5
2024-02-07T05:02:07.615Z,3.3
2024-02-07T05:12:06.671Z,3.3
2024-02-07T05:22:06.886Z,3.3
2024-02-07T05:32:07.125Z,2.9
2024-02-07T05:42:07.275Z,2.7
2024-02-07T05:52:07.510Z,2.5
2024-02-07T06:02:07.706Z,2.3
2024-02-07T06:12:07.949Z,2.3
2024-02-07T06:22:08.123Z,2.3
2024-02-07T06:32:08.330Z,2.3
2024-02-07T06:42:08.556Z,2.2
2024-02-07T06:52:08.747Z,2.3
2024-02-07T07:02:08.991Z,2.3
2024-02-07T07:12:09.177Z,2.4
2024-02-07T07:22:09.371Z,2.4
2024-02-07T07:32:09.624Z,2.4
2024-02-07T07:42:09.792Z,2.6
2024-02-07T07:52:09.993Z,2.6
2024-02-07T08:02:10.223Z,2.6
2024-02-07T08:12:10.416Z,2.7
2024-02-07T08:22:10.628Z,2.7
2024-02-07T08:32:10.840Z,2.8
2024-02-07T08:42:11.088Z,3
2024-02-07T08:52:11.360Z,3.1
2024-02-07T09:02:11.487Z,3.1
2024-02-07T09:12:11.674Z,3.3
2024-02-07T09:22:11.892Z,3.3
2024-02-07T09:42:12.293Z,3.3
2024-02-07T09:52:12.505Z,3.4
2024-02-07T10:02:13.087Z,3.4
2024-02-07T10:12:12.921Z,3.5
2024-02-07T10:22:14.716Z,3.7
2024-02-07T10:32:13.336Z,3.8
2024-02-07T10:42:13.531Z,3.9
2024-02-07T10:52:13.784Z,4.1
2024-02-07T11:02:14.052Z,4.3
2024-02-07T11:12:14.163Z,4.4
2024-02-07T11:22:15.076Z,4.4
2024-02-07T11:32:14.578Z,4.6
2024-02-07T11:42:14.775Z,4.6
2024-02-07T11:52:14.974Z,4.7
2024-02-07T12:02:15.225Z,4.8
2024-02-07T12:12:15.407Z,4.8
2024-02-07T12:22:15.655Z,4.9
2024-02-07T12:32:15.826Z,5.1
2024-02-07T12:42:16.015Z,5.3
2024-02-07T12:52:16.280Z,5.4
2024-02-07T13:02:16.508Z,5.7
2024-02-07T13:12:19.203Z,5.7
2024-02-07T13:22:16.963Z,5.7
2024-02-07T13:32:17.070Z,5.6
2024-02-07T13:42:19.297Z,5.6
2024-02-07T13:52:17.507Z,5.8
2024-02-07T14:02:17.778Z,5.8
2024-02-07T14:12:17.913Z,5.7
2024-02-07T14:22:18.168Z,5.9
2024-02-07T14:32:18.264Z,5.8
2024-02-07T14:42:18.534Z,5.8
2024-02-07T15:02:18.982Z,5.7
2024-02-07T15:22:19.352Z,5.7
2024-02-07T15:32:19.536Z,5.6
2024-02-07T15:42:19.712Z,5.5
2024-02-07T15:52:19.978Z,5.4
2024-02-07T16:02:20.237Z,5.3
2024-02-07T16:12:20.329Z,5.3
2024-02-07T16:22:20.574Z,5.2
2024-02-07T16:32:20.744Z,5.2
2024-02-07T16:42:20.950Z,5.1
2024-02-07T16:52:23.445Z,5.1
2024-02-07T17:02:21.455Z,5
2024-02-07T17:12:21.576Z,5
2024-02-07T17:22:21.785Z,5
2024-02-07T17:32:21.976Z,4.9
2024-02-07T17:42:23.254Z,4.8
2024-02-07T17:52:22.414Z,4.8
2024-02-07T18:02:22.672Z,4.8
2024-02-07T18:12:22.816Z,4.8
2024-02-07T18:22:23.015Z,4.7
2024-02-07T18:32:23.290Z,4.7
2024-02-07T18:42:23.451Z,4.7
2024-02-07T18:52:23.653Z,4.7
2024-02-07T19:02:23.866Z,4.7
2024-02-07T19:22:24.298Z,4.6
2024-02-07T19:32:24.450Z,4.4
2024-02-07T19:42:24.658Z,4.3
2024-02-07T19:52:24.918Z,4.1
2024-02-07T20:02:25.153Z,3.8
2024-02-07T20:12:25.322Z,3.6
2024-02-07T20:22:25.512Z,3.3
2024-02-07T20:32:25.740Z,3.1
2024-02-07T20:42:28.788Z,2.8
2024-02-07T20:52:26.151Z,2.5
2024-02-07T21:02:26.454Z,2.5
2024-02-07T21:12:26.567Z,2.5
2024-02-07T21:22:26.778Z,2.4
2024-02-07T21:32:26.985Z,2.3
2024-02-07T21:42:27.251Z,2.3
2024-02-07T21:52:27.402Z,2.2
2024-02-07T22:02:27.595Z,1.9
2024-02-07T22:12:27.797Z,1.7
2024-02-07T22:22:28.073Z,1.6
2024-02-07T22:32:28.233Z,1.4
2024-02-07T22:42:28.424Z,1.3
2024-02-07T22:52:28.692Z,1.1
2024-02-07T23:02:28.857Z,1.1
2024-02-07T23:12:29.042Z,1.1
2024-02-07T23:22:29.272Z,1.2
2024-02-07T23:32:29.511Z,1.2
2024-02-07T23:42:29.684Z,1.1
2024-02-07T23:52:29.902Z,1.1
